sensor_id;sensor_type;location;lat;lon;timestamp;P1;durP1;ratioP1;P2;durP2;ratioP2
61385;SDS011;47256;18.904;-99.054;2023-12-14T00:00:26;35.15;;;14.50;;
61385;SDS011;47256;18.904;-99.054;2023-12-14T00:02:54;44.13;;;16.98;;
61385;SDS011;47256;18.904;-99.054;2023-12-14T00:05:21;54.60;;;24.42;;
61385;SDS011;47256;18.904;-99.054;2023-12-14T00:07:49;46.95;;;20.95;;
61385;SDS011;47256;18.904;-99.054;2023-12-14T00:10:17;42.78;;;20.13;;
61385;SDS011;47256;18.904;-99.054;2023-12-14T00:12:45;45.58;;;22.20;;
61385;SDS011;47256;18.904;-99.054;2023-12-14T00:15:13;51.47;;;22.30;;
61385;SDS011;47256;18.904;-99.054;2023-12-14T00:17:41;57.92;;;27.05;;
61385;SDS011;47256;18.904;-99.054;2023-12-14T00:20:09;46.03;;;23.80;;
61385;SDS011;47256;18.904;-99.054;2023-12-14T00:22:36;47.13;;;24.55;;
61385;SDS011;47256;18.904;-99.054;2023-12-14T00:25:04;51.80;;;21.85;;
61385;SDS011;47256;18.904;-99.054;2023-12-14T00:27:33;44.90;;;20.58;;
61385;SDS011;47256;18.904;-99.054;2023-12-14T00:30:01;43.40;;;18.58;;
61385;SDS011;47256;18.904;-99.054;2023-12-14T00:32:28;52.50;;;21.13;;
61385;SDS011;47256;18.904;-99.054;2023-12-14T00:34:55;39.72;;;19.75;;
61385;SDS011;47256;18.904;-99.054;2023-12-14T00:37:23;40.50;;;17.95;;
61385;SDS011;47256;18.904;-99.054;2023-12-14T00:39:51;32.92;;;16.20;;
61385;SDS011;47256;18.904;-99.054;2023-12-14T00:42:20;42.17;;;15.73;;
61385;SDS011;47256;18.904;-99.054;2023-12-14T00:44:48;32.60;;;14.93;;
61385;SDS011;47256;18.904;-99.054;2023-12-14T00:47:16;37.70;;;13.68;;
61385;SDS011;47256;18.904;-99.054;2023-12-14T00:49:43;31.75;;;12.93;;
61385;SDS011;47256;18.904;-99.054;2023-12-14T00:52:10;30.38;;;13.52;;
61385;SDS011;47256;18.904;-99.054;2023-12-14T00:54:38;28.38;;;10.63;;
61385;SDS011;47256;18.904;-99.054;2023-12-14T00:57:05;35.65;;;11.60;;
61385;SDS011;47256;18.904;-99.054;2023-12-14T00:59:32;28.30;;;11.52;;
61385;SDS011;47256;18.904;-99.054;2023-12-14T01:01:59;28.63;;;12.77;;
61385;SDS011;47256;18.904;-99.054;2023-12-14T01:04:28;35.83;;;16.35;;
61385;SDS011;47256;18.904;-99.054;2023-12-14T01:06:55;33.00;;;14.23;;
61385;SDS011;47256;18.904;-99.054;2023-12-14T01:09:23;36.72;;;16.85;;
61385;SDS011;47256;18.904;-99.054;2023-12-14T01:11:51;39.28;;;16.40;;
61385;SDS011;47256;18.904;-99.054;2023-12-14T01:14:19;35.55;;;14.95;;
61385;SDS011;47256;18.904;-99.054;2023-12-14T01:16:46;36.70;;;14.57;;
61385;SDS011;47256;18.904;-99.054;2023-12-14T01:19:15;25.77;;;15.18;;
61385;SDS011;47256;18.904;-99.054;2023-12-14T01:21:42;39.67;;;15.95;;
61385;SDS011;47256;18.904;-99.054;2023-12-14T01:24:09;31.80;;;15.10;;
61385;SDS011;47256;18.904;-99.054;2023-12-14T01:26:36;35.30;;;15.90;;
61385;SDS011;47256;18.904;-99.054;2023-12-14T01:29:04;32.65;;;16.20;;
61385;SDS011;47256;18.904;-99.054;2023-12-14T01:31:32;31.08;;;17.50;;
61385;SDS011;47256;18.904;-99.054;2023-12-14T01:34:00;36.80;;;18.70;;
61385;SDS011;47256;18.904;-99.054;2023-12-14T01:36:27;43.15;;;19.05;;
61385;SDS011;47256;18.904;-99.054;2023-12-14T01:38:55;43.40;;;20.73;;
61385;SDS011;47256;18.904;-99.054;2023-12-14T01:41:22;36.80;;;19.63;;
61385;SDS011;47256;18.904;-99.054;2023-12-14T01:43:50;42.20;;;18.85;;
61385;SDS011;47256;18.904;-99.054;2023-12-14T01:46:17;43.33;;;19.70;;
61385;SDS011;47256;18.904;-99.054;2023-12-14T01:48:45;36.85;;;19.65;;
61385;SDS011;47256;18.904;-99.054;2023-12-14T01:51:12;38.60;;;20.05;;
61385;SDS011;47256;18.904;-99.054;2023-12-14T01:53:39;37.60;;;17.80;;
61385;SDS011;47256;18.904;-99.054;2023-12-14T01:56:07;34.03;;;13.13;;
61385;SDS011;47256;18.904;-99.054;2023-12-14T01:58:34;33.75;;;14.45;;
61385;SDS011;47256;18.904;-99.054;2023-12-14T02:03:46;31.48;;;14.82;;
61385;SDS011;47256;18.904;-99.054;2023-12-14T02:06:15;31.20;;;13.50;;
61385;SDS011;47256;18.904;-99.054;2023-12-14T02:08:43;24.33;;;12.80;;
61385;SDS011;47256;18.904;-99.054;2023-12-14T02:11:11;43.17;;;15.10;;
61385;SDS011;47256;18.904;-99.054;2023-12-14T02:13:40;39.03;;;13.85;;
61385;SDS011;47256;18.904;-99.054;2023-12-14T02:16:07;33.55;;;13.38;;
61385;SDS011;47256;18.904;-99.054;2023-12-14T02:18:37;33.17;;;12.38;;
61385;SDS011;47256;18.904;-99.054;2023-12-14T02:21:04;18.98;;;11.90;;
61385;SDS011;47256;18.904;-99.054;2023-12-14T02:23:32;23.95;;;12.27;;
61385;SDS011;47256;18.904;-99.054;2023-12-14T02:26:00;26.13;;;11.57;;
61385;SDS011;47256;18.904;-99.054;2023-12-14T02:28:28;26.77;;;12.10;;
61385;SDS011;47256;18.904;-99.054;2023-12-14T02:30:55;25.33;;;11.35;;
61385;SDS011;47256;18.904;-99.054;2023-12-14T02:33:23;27.30;;;11.95;;
61385;SDS011;47256;18.904;-99.054;2023-12-14T02:35:50;30.73;;;12.52;;
61385;SDS011;47256;18.904;-99.054;2023-12-14T02:38:18;23.75;;;12.02;;
61385;SDS011;47256;18.904;-99.054;2023-12-14T02:40:46;18.85;;;11.20;;
61385;SDS011;47256;18.904;-99.054;2023-12-14T02:43:16;20.30;;;10.02;;
61385;SDS011;47256;18.904;-99.054;2023-12-14T02:45:43;17.63;;;10.27;;
61385;SDS011;47256;18.904;-99.054;2023-12-14T02:48:11;22.33;;;10.52;;
61385;SDS011;47256;18.904;-99.054;2023-12-14T02:50:38;19.88;;;9.77;;
61385;SDS011;47256;18.904;-99.054;2023-12-14T02:53:05;23.80;;;10.30;;
61385;SDS011;47256;18.904;-99.054;2023-12-14T02:55:33;21.50;;;9.25;;
61385;SDS011;47256;18.904;-99.054;2023-12-14T02:58:00;18.75;;;8.55;;
61385;SDS011;47256;18.904;-99.054;2023-12-14T03:00:27;20.83;;;8.93;;
61385;SDS011;47256;18.904;-99.054;2023-12-14T03:02:55;19.92;;;8.98;;
61385;SDS011;47256;18.904;-99.054;2023-12-14T03:05:23;47.05;;;21.15;;
61385;SDS011;47256;18.904;-99.054;2023-12-14T03:07:51;23.25;;;11.80;;
61385;SDS011;47256;18.904;-99.054;2023-12-14T03:10:18;20.58;;;8.77;;
61385;SDS011;47256;18.904;-99.054;2023-12-14T03:12:46;16.35;;;8.27;;
61385;SDS011;47256;18.904;-99.054;2023-12-14T03:15:13;16.55;;;9.02;;
61385;SDS011;47256;18.904;-99.054;2023-12-14T03:17:45;22.25;;;8.35;;
61385;SDS011;47256;18.904;-99.054;2023-12-14T03:20:12;19.30;;;7.85;;
61385;SDS011;47256;18.904;-99.054;2023-12-14T03:22:40;22.25;;;10.13;;
61385;SDS011;47256;18.904;-99.054;2023-12-14T03:25:08;22.58;;;8.95;;
61385;SDS011;47256;18.904;-99.054;2023-12-14T03:27:39;23.42;;;7.90;;
61385;SDS011;47256;18.904;-99.054;2023-12-14T03:30:07;16.48;;;8.35;;
61385;SDS011;47256;18.904;-99.054;2023-12-14T03:32:36;17.42;;;8.35;;
61385;SDS011;47256;18.904;-99.054;2023-12-14T03:35:03;15.30;;;7.88;;
61385;SDS011;47256;18.904;-99.054;2023-12-14T03:37:31;19.17;;;8.77;;
61385;SDS011;47256;18.904;-99.054;2023-12-14T03:39:58;17.20;;;7.82;;
61385;SDS011;47256;18.904;-99.054;2023-12-14T03:42:26;14.27;;;7.68;;
61385;SDS011;47256;18.904;-99.054;2023-12-14T03:44:53;20.77;;;7.43;;
61385;SDS011;47256;18.904;-99.054;2023-12-14T03:47:20;16.10;;;7.50;;
61385;SDS011;47256;18.904;-99.054;2023-12-14T03:49:47;15.88;;;7.38;;
61385;SDS011;47256;18.904;-99.054;2023-12-14T03:52:15;13.80;;;7.05;;
61385;SDS011;47256;18.904;-99.054;2023-12-14T03:54:42;12.10;;;6.85;;
61385;SDS011;47256;18.904;-99.054;2023-12-14T03:57:09;13.85;;;7.20;;
61385;SDS011;47256;18.904;-99.054;2023-12-14T03:59:40;13.32;;;7.10;;
61385;SDS011;47256;18.904;-99.054;2023-12-14T04:02:08;16.60;;;7.38;;
61385;SDS011;47256;18.904;-99.054;2023-12-14T04:04:35;17.08;;;6.10;;
61385;SDS011;47256;18.904;-99.054;2023-12-14T04:07:04;10.05;;;6.68;;
61385;SDS011;47256;18.904;-99.054;2023-12-14T04:09:31;14.60;;;6.68;;
61385;SDS011;47256;18.904;-99.054;2023-12-14T04:11:59;17.02;;;7.40;;
61385;SDS011;47256;18.904;-99.054;2023-12-14T04:14:26;14.02;;;6.18;;
61385;SDS011;47256;18.904;-99.054;2023-12-14T04:16:55;9.93;;;5.70;;
61385;SDS011;47256;18.904;-99.054;2023-12-14T04:19:22;12.07;;;6.35;;
61385;SDS011;47256;18.904;-99.054;2023-12-14T04:21:49;14.70;;;6.57;;
61385;SDS011;47256;18.904;-99.054;2023-12-14T04:24:16;14.50;;;6.15;;
61385;SDS011;47256;18.904;-99.054;2023-12-14T04:26:44;12.32;;;6.28;;
61385;SDS011;47256;18.904;-99.054;2023-12-14T04:29:11;65.60;;;30.13;;
61385;SDS011;47256;18.904;-99.054;2023-12-14T04:31:39;62.88;;;28.10;;
61385;SDS011;47256;18.904;-99.054;2023-12-14T04:34:06;24.05;;;9.65;;
61385;SDS011;47256;18.904;-99.054;2023-12-14T04:36:37;20.17;;;9.65;;
61385;SDS011;47256;18.904;-99.054;2023-12-14T04:39:05;24.40;;;10.30;;
61385;SDS011;47256;18.904;-99.054;2023-12-14T04:41:32;34.28;;;17.25;;
61385;SDS011;47256;18.904;-99.054;2023-12-14T04:44:00;25.05;;;12.63;;
61385;SDS011;47256;18.904;-99.054;2023-12-14T04:46:27;25.50;;;11.65;;
61385;SDS011;47256;18.904;-99.054;2023-12-14T04:48:54;26.02;;;11.63;;
61385;SDS011;47256;18.904;-99.054;2023-12-14T04:51:22;22.85;;;10.85;;
61385;SDS011;47256;18.904;-99.054;2023-12-14T04:53:49;20.45;;;11.25;;
61385;SDS011;47256;18.904;-99.054;2023-12-14T04:56:16;21.73;;;11.02;;
61385;SDS011;47256;18.904;-99.054;2023-12-14T04:58:43;28.15;;;11.48;;
61385;SDS011;47256;18.904;-99.054;2023-12-14T05:01:12;20.90;;;10.90;;
61385;SDS011;47256;18.904;-99.054;2023-12-14T05:03:40;26.25;;;12.27;;
61385;SDS011;47256;18.904;-99.054;2023-12-14T05:06:10;32.05;;;12.27;;
61385;SDS011;47256;18.904;-99.054;2023-12-14T05:08:37;23.40;;;11.82;;
61385;SDS011;47256;18.904;-99.054;2023-12-14T05:13:59;33.10;;;13.30;;
61385;SDS011;47256;18.904;-99.054;2023-12-14T05:16:27;24.48;;;11.27;;
61385;SDS011;47256;18.904;-99.054;2023-12-14T05:18:55;22.08;;;11.65;;
61385;SDS011;47256;18.904;-99.054;2023-12-14T05:21:25;23.33;;;10.93;;
61385;SDS011;47256;18.904;-99.054;2023-12-14T05:23:52;26.80;;;10.73;;
61385;SDS011;47256;18.904;-99.054;2023-12-14T05:26:20;23.05;;;11.30;;
61385;SDS011;47256;18.904;-99.054;2023-12-14T05:28:48;25.80;;;11.65;;
61385;SDS011;47256;18.904;-99.054;2023-12-14T05:31:15;18.08;;;10.23;;
61385;SDS011;47256;18.904;-99.054;2023-12-14T05:33:43;30.77;;;11.00;;
61385;SDS011;47256;18.904;-99.054;2023-12-14T05:36:11;31.80;;;11.02;;
61385;SDS011;47256;18.904;-99.054;2023-12-14T05:38:38;19.25;;;9.40;;
61385;SDS011;47256;18.904;-99.054;2023-12-14T05:41:06;18.17;;;9.38;;
61385;SDS011;47256;18.904;-99.054;2023-12-14T05:43:34;47.53;;;13.30;;
61385;SDS011;47256;18.904;-99.054;2023-12-14T05:46:02;55.70;;;15.07;;
61385;SDS011;47256;18.904;-99.054;2023-12-14T05:48:29;27.63;;;12.32;;
61385;SDS011;47256;18.904;-99.054;2023-12-14T05:50:57;29.63;;;12.55;;
61385;SDS011;47256;18.904;-99.054;2023-12-14T05:53:26;29.58;;;11.20;;
61385;SDS011;47256;18.904;-99.054;2023-12-14T05:55:53;24.45;;;10.20;;
61385;SDS011;47256;18.904;-99.054;2023-12-14T05:58:20;23.17;;;10.13;;
61385;SDS011;47256;18.904;-99.054;2023-12-14T06:00:48;28.10;;;11.13;;
61385;SDS011;47256;18.904;-99.054;2023-12-14T06:03:16;25.95;;;10.48;;
61385;SDS011;47256;18.904;-99.054;2023-12-14T06:05:43;22.52;;;8.88;;
61385;SDS011;47256;18.904;-99.054;2023-12-14T06:08:11;22.35;;;9.10;;
61385;SDS011;47256;18.904;-99.054;2023-12-14T06:10:39;20.55;;;8.80;;
61385;SDS011;47256;18.904;-99.054;2023-12-14T06:13:07;17.15;;;8.07;;
61385;SDS011;47256;18.904;-99.054;2023-12-14T06:15:34;14.85;;;7.53;;
61385;SDS011;47256;18.904;-99.054;2023-12-14T06:18:02;17.08;;;7.32;;
61385;SDS011;47256;18.904;-99.054;2023-12-14T06:20:31;16.35;;;8.25;;
61385;SDS011;47256;18.904;-99.054;2023-12-14T06:22:58;12.18;;;6.25;;
61385;SDS011;47256;18.904;-99.054;2023-12-14T06:25:25;13.82;;;6.78;;
61385;SDS011;47256;18.904;-99.054;2023-12-14T06:27:53;17.40;;;6.57;;
61385;SDS011;47256;18.904;-99.054;2023-12-14T06:30:21;13.05;;;6.15;;
61385;SDS011;47256;18.904;-99.054;2023-12-14T06:32:49;13.02;;;6.82;;
61385;SDS011;47256;18.904;-99.054;2023-12-14T06:35:16;11.77;;;6.07;;
61385;SDS011;47256;18.904;-99.054;2023-12-14T06:37:44;18.40;;;5.88;;
61385;SDS011;47256;18.904;-99.054;2023-12-14T06:40:11;14.43;;;5.20;;
61385;SDS011;47256;18.904;-99.054;2023-12-14T06:42:39;9.05;;;4.82;;
61385;SDS011;47256;18.904;-99.054;2023-12-14T06:45:08;9.35;;;4.88;;
61385;SDS011;47256;18.904;-99.054;2023-12-14T06:47:36;7.55;;;4.22;;
61385;SDS011;47256;18.904;-99.054;2023-12-14T06:50:04;9.13;;;3.95;;
61385;SDS011;47256;18.904;-99.054;2023-12-14T06:52:31;7.28;;;4.22;;
61385;SDS011;47256;18.904;-99.054;2023-12-14T06:54:58;10.55;;;4.18;;
61385;SDS011;47256;18.904;-99.054;2023-12-14T06:57:26;7.30;;;3.10;;
61385;SDS011;47256;18.904;-99.054;2023-12-14T06:59:55;9.13;;;3.55;;
61385;SDS011;47256;18.904;-99.054;2023-12-14T07:02:23;6.72;;;3.33;;
61385;SDS011;47256;18.904;-99.054;2023-12-14T07:04:50;5.05;;;3.53;;
61385;SDS011;47256;18.904;-99.054;2023-12-14T07:07:23;10.85;;;3.60;;
61385;SDS011;47256;18.904;-99.054;2023-12-14T07:09:51;6.35;;;3.15;;
61385;SDS011;47256;18.904;-99.054;2023-12-14T07:12:20;8.25;;;3.67;;
61385;SDS011;47256;18.904;-99.054;2023-12-14T07:14:48;7.78;;;3.58;;
61385;SDS011;47256;18.904;-99.054;2023-12-14T07:17:17;6.72;;;3.65;;
61385;SDS011;47256;18.904;-99.054;2023-12-14T07:19:44;8.23;;;3.90;;
61385;SDS011;47256;18.904;-99.054;2023-12-14T07:22:12;11.15;;;3.63;;
61385;SDS011;47256;18.904;-99.054;2023-12-14T07:24:39;7.93;;;3.97;;
61385;SDS011;47256;18.904;-99.054;2023-12-14T07:27:06;7.45;;;3.85;;
61385;SDS011;47256;18.904;-99.054;2023-12-14T07:29:33;7.45;;;4.10;;
61385;SDS011;47256;18.904;-99.054;2023-12-14T07:32:01;6.55;;;3.67;;
61385;SDS011;47256;18.904;-99.054;2023-12-14T07:34:29;7.13;;;3.70;;
61385;SDS011;47256;18.904;-99.054;2023-12-14T07:36:56;9.68;;;3.97;;
61385;SDS011;47256;18.904;-99.054;2023-12-14T07:39:23;9.18;;;4.05;;
61385;SDS011;47256;18.904;-99.054;2023-12-14T07:41:51;9.18;;;4.47;;
61385;SDS011;47256;18.904;-99.054;2023-12-14T07:44:19;14.75;;;4.30;;
61385;SDS011;47256;18.904;-99.054;2023-12-14T07:46:46;7.75;;;4.53;;
61385;SDS011;47256;18.904;-99.054;2023-12-14T07:49:14;10.68;;;3.67;;
61385;SDS011;47256;18.904;-99.054;2023-12-14T07:51:41;8.30;;;3.50;;
61385;SDS011;47256;18.904;-99.054;2023-12-14T07:54:08;9.65;;;4.18;;
61385;SDS011;47256;18.904;-99.054;2023-12-14T07:56:35;9.25;;;3.72;;
61385;SDS011;47256;18.904;-99.054;2023-12-14T07:59:03;8.15;;;3.92;;
61385;SDS011;47256;18.904;-99.054;2023-12-14T08:01:33;10.23;;;4.10;;
61385;SDS011;47256;18.904;-99.054;2023-12-14T08:04:02;8.40;;;4.90;;
61385;SDS011;47256;18.904;-99.054;2023-12-14T08:06:32;12.73;;;6.53;;
61385;SDS011;47256;18.904;-99.054;2023-12-14T08:09:00;14.35;;;6.10;;
61385;SDS011;47256;18.904;-99.054;2023-12-14T08:11:28;17.15;;;6.70;;
61385;SDS011;47256;18.904;-99.054;2023-12-14T08:13:56;13.05;;;5.63;;
61385;SDS011;47256;18.904;-99.054;2023-12-14T08:16:24;9.57;;;5.25;;
61385;SDS011;47256;18.904;-99.054;2023-12-14T08:18:52;10.63;;;5.40;;
61385;SDS011;47256;18.904;-99.054;2023-12-14T08:21:20;7.70;;;5.38;;
61385;SDS011;47256;18.904;-99.054;2023-12-14T08:23:47;12.13;;;5.80;;
61385;SDS011;47256;18.904;-99.054;2023-12-14T08:26:14;8.90;;;4.72;;
61385;SDS011;47256;18.904;-99.054;2023-12-14T08:28:43;9.68;;;5.28;;
61385;SDS011;47256;18.904;-99.054;2023-12-14T08:31:10;10.27;;;5.03;;
61385;SDS011;47256;18.904;-99.054;2023-12-14T08:33:40;11.43;;;5.03;;
61385;SDS011;47256;18.904;-99.054;2023-12-14T08:36:08;13.50;;;5.53;;
61385;SDS011;47256;18.904;-99.054;2023-12-14T08:38:36;15.50;;;5.55;;
61385;SDS011;47256;18.904;-99.054;2023-12-14T08:41:03;15.73;;;5.53;;
61385;SDS011;47256;18.904;-99.054;2023-12-14T08:43:31;8.27;;;5.28;;
61385;SDS011;47256;18.904;-99.054;2023-12-14T08:45:58;10.55;;;4.80;;
61385;SDS011;47256;18.904;-99.054;2023-12-14T08:48:25;12.30;;;5.45;;
61385;SDS011;47256;18.904;-99.054;2023-12-14T08:50:53;7.43;;;4.43;;
61385;SDS011;47256;18.904;-99.054;2023-12-14T08:53:21;10.93;;;5.38;;
61385;SDS011;47256;18.904;-99.054;2023-12-14T08:55:48;8.73;;;4.90;;
61385;SDS011;47256;18.904;-99.054;2023-12-14T08:58:15;16.75;;;5.00;;
61385;SDS011;47256;18.904;-99.054;2023-12-14T09:00:43;10.38;;;4.82;;
61385;SDS011;47256;18.904;-99.054;2023-12-14T09:03:11;8.60;;;5.13;;
61385;SDS011;47256;18.904;-99.054;2023-12-14T09:05:39;8.90;;;5.43;;
61385;SDS011;47256;18.904;-99.054;2023-12-14T09:08:09;10.18;;;4.95;;
61385;SDS011;47256;18.904;-99.054;2023-12-14T09:10:36;15.45;;;4.78;;
61385;SDS011;47256;18.904;-99.054;2023-12-14T09:13:07;8.90;;;4.82;;
61385;SDS011;47256;18.904;-99.054;2023-12-14T09:15:35;9.20;;;4.90;;
61385;SDS011;47256;18.904;-99.054;2023-12-14T09:18:03;9.25;;;5.07;;
61385;SDS011;47256;18.904;-99.054;2023-12-14T09:20:31;11.68;;;5.00;;
61385;SDS011;47256;18.904;-99.054;2023-12-14T09:23:01;15.25;;;4.68;;
61385;SDS011;47256;18.904;-99.054;2023-12-14T09:25:28;10.23;;;4.57;;
61385;SDS011;47256;18.904;-99.054;2023-12-14T09:27:56;6.72;;;3.80;;
61385;SDS011;47256;18.904;-99.054;2023-12-14T09:30:23;11.90;;;4.32;;
61385;SDS011;47256;18.904;-99.054;2023-12-14T09:32:51;11.35;;;4.25;;
61385;SDS011;47256;18.904;-99.054;2023-12-14T09:35:19;10.30;;;4.95;;
61385;SDS011;47256;18.904;-99.054;2023-12-14T09:37:46;10.48;;;3.90;;
61385;SDS011;47256;18.904;-99.054;2023-12-14T09:40:13;17.45;;;4.10;;
61385;SDS011;47256;18.904;-99.054;2023-12-14T09:42:42;12.48;;;4.35;;
61385;SDS011;47256;18.904;-99.054;2023-12-14T09:45:10;10.57;;;4.38;;
61385;SDS011;47256;18.904;-99.054;2023-12-14T09:47:38;10.27;;;3.47;;
61385;SDS011;47256;18.904;-99.054;2023-12-14T09:50:06;7.28;;;3.63;;
61385;SDS011;47256;18.904;-99.054;2023-12-14T09:52:34;9.43;;;4.53;;
61385;SDS011;47256;18.904;-99.054;2023-12-14T09:55:01;26.58;;;7.78;;
61385;SDS011;47256;18.904;-99.054;2023-12-14T09:57:30;15.07;;;6.20;;
61385;SDS011;47256;18.904;-99.054;2023-12-14T09:59:57;18.27;;;6.22;;
61385;SDS011;47256;18.904;-99.054;2023-12-14T10:02:25;8.75;;;4.35;;
61385;SDS011;47256;18.904;-99.054;2023-12-14T10:04:53;11.90;;;4.47;;
61385;SDS011;47256;18.904;-99.054;2023-12-14T10:07:25;13.80;;;5.10;;
61385;SDS011;47256;18.904;-99.054;2023-12-14T10:09:52;11.45;;;4.18;;
61385;SDS011;47256;18.904;-99.054;2023-12-14T10:12:20;11.77;;;4.45;;
61385;SDS011;47256;18.904;-99.054;2023-12-14T10:14:48;10.30;;;4.80;;
61385;SDS011;47256;18.904;-99.054;2023-12-14T10:17:29;8.57;;;4.47;;
61385;SDS011;47256;18.904;-99.054;2023-12-14T10:19:57;13.32;;;4.50;;
61385;SDS011;47256;18.904;-99.054;2023-12-14T10:22:29;8.95;;;4.60;;
61385;SDS011;47256;18.904;-99.054;2023-12-14T10:24:58;6.57;;;4.05;;
61385;SDS011;47256;18.904;-99.054;2023-12-14T10:27:26;8.77;;;4.97;;
61385;SDS011;47256;18.904;-99.054;2023-12-14T10:29:55;10.02;;;5.22;;
61385;SDS011;47256;18.904;-99.054;2023-12-14T10:32:24;8.68;;;4.53;;
61385;SDS011;47256;18.904;-99.054;2023-12-14T10:34:51;7.82;;;5.18;;
61385;SDS011;47256;18.904;-99.054;2023-12-14T10:37:18;11.10;;;5.00;;
61385;SDS011;47256;18.904;-99.054;2023-12-14T10:39:47;8.35;;;4.68;;
61385;SDS011;47256;18.904;-99.054;2023-12-14T10:42:19;13.10;;;4.43;;
61385;SDS011;47256;18.904;-99.054;2023-12-14T10:44:51;9.95;;;4.75;;
61385;SDS011;47256;18.904;-99.054;2023-12-14T10:47:19;12.48;;;4.85;;
61385;SDS011;47256;18.904;-99.054;2023-12-14T10:49:47;10.70;;;4.72;;
61385;SDS011;47256;18.904;-99.054;2023-12-14T10:52:17;11.50;;;4.82;;
61385;SDS011;47256;18.904;-99.054;2023-12-14T10:54:46;9.05;;;4.28;;
61385;SDS011;47256;18.904;-99.054;2023-12-14T10:57:15;10.90;;;4.13;;
61385;SDS011;47256;18.904;-99.054;2023-12-14T10:59:42;8.00;;;4.03;;
61385;SDS011;47256;18.904;-99.054;2023-12-14T11:02:10;8.38;;;4.20;;
61385;SDS011;47256;18.904;-99.054;2023-12-14T11:04:54;9.30;;;4.95;;
61385;SDS011;47256;18.904;-99.054;2023-12-14T11:07:43;9.38;;;4.20;;
61385;SDS011;47256;18.904;-99.054;2023-12-14T11:10:13;8.35;;;4.18;;
61385;SDS011;47256;18.904;-99.054;2023-12-14T11:15:40;11.63;;;3.88;;
61385;SDS011;47256;18.904;-99.054;2023-12-14T11:20:50;8.40;;;3.97;;
61385;SDS011;47256;18.904;-99.054;2023-12-14T11:26:00;7.15;;;4.60;;
61385;SDS011;47256;18.904;-99.054;2023-12-14T11:28:33;13.23;;;3.95;;
61385;SDS011;47256;18.904;-99.054;2023-12-14T11:31:02;11.75;;;4.35;;
61385;SDS011;47256;18.904;-99.054;2023-12-14T11:33:35;10.40;;;3.95;;
61385;SDS011;47256;18.904;-99.054;2023-12-14T11:36:03;13.63;;;3.92;;
61385;SDS011;47256;18.904;-99.054;2023-12-14T11:38:32;6.47;;;3.78;;
61385;SDS011;47256;18.904;-99.054;2023-12-14T11:40:59;9.88;;;4.00;;
61385;SDS011;47256;18.904;-99.054;2023-12-14T11:43:27;9.85;;;4.55;;
61385;SDS011;47256;18.904;-99.054;2023-12-14T11:45:55;7.65;;;3.85;;
61385;SDS011;47256;18.904;-99.054;2023-12-14T11:48:22;9.88;;;4.57;;
61385;SDS011;47256;18.904;-99.054;2023-12-14T11:50:50;10.63;;;4.00;;
61385;SDS011;47256;18.904;-99.054;2023-12-14T11:53:17;9.15;;;4.28;;
61385;SDS011;47256;18.904;-99.054;2023-12-14T11:55:45;8.73;;;4.07;;
61385;SDS011;47256;18.904;-99.054;2023-12-14T11:58:12;14.43;;;4.22;;
61385;SDS011;47256;18.904;-99.054;2023-12-14T12:00:42;12.27;;;4.65;;
61385;SDS011;47256;18.904;-99.054;2023-12-14T12:03:17;5.40;;;3.53;;
61385;SDS011;47256;18.904;-99.054;2023-12-14T12:05:49;9.02;;;3.92;;
61385;SDS011;47256;18.904;-99.054;2023-12-14T12:08:19;10.55;;;4.80;;
61385;SDS011;47256;18.904;-99.054;2023-12-14T12:10:47;7.80;;;4.03;;
61385;SDS011;47256;18.904;-99.054;2023-12-14T12:13:19;8.90;;;4.38;;
61385;SDS011;47256;18.904;-99.054;2023-12-14T12:15:48;9.88;;;5.07;;
61385;SDS011;47256;18.904;-99.054;2023-12-14T12:18:16;12.95;;;6.13;;
61385;SDS011;47256;18.904;-99.054;2023-12-14T12:20:45;8.80;;;5.13;;
61385;SDS011;47256;18.904;-99.054;2023-12-14T12:23:22;9.25;;;4.40;;
61385;SDS011;47256;18.904;-99.054;2023-12-14T12:25:50;12.57;;;4.82;;
61385;SDS011;47256;18.904;-99.054;2023-12-14T12:28:18;11.20;;;5.03;;
61385;SDS011;47256;18.904;-99.054;2023-12-14T12:30:46;8.90;;;4.22;;
61385;SDS011;47256;18.904;-99.054;2023-12-14T12:33:14;27.60;;;11.13;;
61385;SDS011;47256;18.904;-99.054;2023-12-14T12:35:41;19.42;;;9.75;;
61385;SDS011;47256;18.904;-99.054;2023-12-14T12:38:08;27.90;;;12.70;;
61385;SDS011;47256;18.904;-99.054;2023-12-14T12:40:35;21.90;;;5.75;;
61385;SDS011;47256;18.904;-99.054;2023-12-14T12:43:02;10.80;;;4.50;;
61385;SDS011;47256;18.904;-99.054;2023-12-14T12:45:30;19.10;;;5.40;;
61385;SDS011;47256;18.904;-99.054;2023-12-14T12:47:58;19.83;;;5.20;;
61385;SDS011;47256;18.904;-99.054;2023-12-14T12:50:25;11.82;;;4.70;;
61385;SDS011;47256;18.904;-99.054;2023-12-14T12:52:52;14.13;;;6.18;;
61385;SDS011;47256;18.904;-99.054;2023-12-14T12:55:19;12.90;;;5.63;;
61385;SDS011;47256;18.904;-99.054;2023-12-14T12:57:47;16.60;;;5.15;;
61385;SDS011;47256;18.904;-99.054;2023-12-14T13:00:15;20.70;;;6.00;;
61385;SDS011;47256;18.904;-99.054;2023-12-14T13:02:43;11.60;;;4.95;;
61385;SDS011;47256;18.904;-99.054;2023-12-14T13:05:12;11.65;;;5.10;;
61385;SDS011;47256;18.904;-99.054;2023-12-14T13:07:43;19.88;;;5.47;;
61385;SDS011;47256;18.904;-99.054;2023-12-14T13:10:13;18.55;;;6.78;;
61385;SDS011;47256;18.904;-99.054;2023-12-14T13:12:41;31.63;;;10.45;;
61385;SDS011;47256;18.904;-99.054;2023-12-14T13:15:10;21.50;;;6.88;;
61385;SDS011;47256;18.904;-99.054;2023-12-14T13:17:38;20.55;;;5.80;;
61385;SDS011;47256;18.904;-99.054;2023-12-14T13:20:06;34.30;;;8.20;;
61385;SDS011;47256;18.904;-99.054;2023-12-14T13:22:34;12.20;;;5.28;;
61385;SDS011;47256;18.904;-99.054;2023-12-14T13:25:02;18.17;;;7.22;;
61385;SDS011;47256;18.904;-99.054;2023-12-14T13:27:29;14.68;;;6.03;;
61385;SDS011;47256;18.904;-99.054;2023-12-14T13:29:58;15.43;;;5.30;;
61385;SDS011;47256;18.904;-99.054;2023-12-14T13:32:25;12.88;;;5.07;;
61385;SDS011;47256;18.904;-99.054;2023-12-14T13:34:53;11.65;;;4.95;;
61385;SDS011;47256;18.904;-99.054;2023-12-14T13:37:21;12.85;;;4.45;;
61385;SDS011;47256;18.904;-99.054;2023-12-14T13:39:48;15.68;;;4.65;;
61385;SDS011;47256;18.904;-99.054;2023-12-14T13:42:15;14.27;;;4.60;;
61385;SDS011;47256;18.904;-99.054;2023-12-14T13:44:43;11.95;;;4.80;;
61385;SDS011;47256;18.904;-99.054;2023-12-14T13:47:10;8.38;;;4.50;;
61385;SDS011;47256;18.904;-99.054;2023-12-14T13:49:38;10.73;;;5.22;;
61385;SDS011;47256;18.904;-99.054;2023-12-14T13:52:05;15.15;;;5.50;;
61385;SDS011;47256;18.904;-99.054;2023-12-14T13:54:32;10.25;;;5.60;;
61385;SDS011;47256;18.904;-99.054;2023-12-14T13:57:00;11.95;;;5.07;;
61385;SDS011;47256;18.904;-99.054;2023-12-14T13:59:27;11.52;;;5.13;;
61385;SDS011;47256;18.904;-99.054;2023-12-14T14:01:54;10.95;;;4.57;;
61385;SDS011;47256;18.904;-99.054;2023-12-14T14:04:23;14.23;;;5.47;;
61385;SDS011;47256;18.904;-99.054;2023-12-14T14:06:50;18.38;;;6.95;;
61385;SDS011;47256;18.904;-99.054;2023-12-14T14:09:19;27.48;;;6.68;;
61385;SDS011;47256;18.904;-99.054;2023-12-14T14:11:48;24.45;;;7.57;;
61385;SDS011;47256;18.904;-99.054;2023-12-14T14:14:17;20.73;;;6.78;;
61385;SDS011;47256;18.904;-99.054;2023-12-14T14:16:46;20.52;;;7.10;;
61385;SDS011;47256;18.904;-99.054;2023-12-14T14:19:13;21.63;;;8.02;;
61385;SDS011;47256;18.904;-99.054;2023-12-14T14:21:42;17.23;;;7.03;;
61385;SDS011;47256;18.904;-99.054;2023-12-14T14:24:09;15.45;;;7.15;;
61385;SDS011;47256;18.904;-99.054;2023-12-14T14:26:37;13.98;;;6.97;;